sensor_id;sensor_type;location;lat;lon;timestamp;temperature;humidity
46123;DHT22;31856;-35.404;149.120;2023-03-01T02:18:44;26.10;40.90
46123;DHT22;31856;-35.404;149.120;2023-03-01T02:26:54;25.70;37.80
46123;DHT22;31856;-35.404;149.120;2023-03-01T02:29:25;25.40;38.10
46123;DHT22;31856;-35.404;149.120;2023-03-01T02:31:58;25.40;39.20
46123;DHT22;31856;-35.404;149.120;2023-03-01T02:34:29;25.70;39.30
46123;DHT22;31856;-35.404;149.120;2023-03-01T02:39:39;26.00;39.50
46123;DHT22;31856;-35.404;149.120;2023-03-01T02:42:11;26.20;38.80
46123;DHT22;31856;-35.404;149.120;2023-03-01T02:44:42;26.30;38.10
46123;DHT22;31856;-35.404;149.120;2023-03-01T02:47:12;26.40;38.30
46123;DHT22;31856;-35.404;149.120;2023-03-01T02:49:41;26.50;37.00
46123;DHT22;31856;-35.404;149.120;2023-03-01T02:55:01;26.70;35.60
46123;DHT22;31856;-35.404;149.120;2023-03-01T02:57:32;26.70;35.50
46123;DHT22;31856;-35.404;149.120;2023-03-01T03:00:07;26.80;35.10
46123;DHT22;31856;-35.404;149.120;2023-03-01T03:02:37;26.90;35.10
46123;DHT22;31856;-35.404;149.120;2023-03-01T03:05:08;26.80;35.40
46123;DHT22;31856;-35.404;149.120;2023-03-01T03:07:39;27.00;36.00
46123;DHT22;31856;-35.404;149.120;2023-03-01T03:10:14;26.90;35.00
46123;DHT22;31856;-35.404;149.120;2023-03-01T03:12:44;27.00;34.80
46123;DHT22;31856;-35.404;149.120;2023-03-01T03:15:14;27.10;34.90
46123;DHT22;31856;-35.404;149.120;2023-03-01T03:17:44;27.30;34.00
46123;DHT22;31856;-35.404;149.120;2023-03-01T03:20:15;27.10;33.40
46123;DHT22;31856;-35.404;149.120;2023-03-01T03:22:48;27.20;34.00
46123;DHT22;31856;-35.404;149.120;2023-03-01T03:25:20;27.30;34.80
46123;DHT22;31856;-35.404;149.120;2023-03-01T03:27:50;27.60;34.50
46123;DHT22;31856;-35.404;149.120;2023-03-01T03:30:26;27.70;34.10
46123;DHT22;31856;-35.404;149.120;2023-03-01T03:32:57;27.60;34.00
46123;DHT22;31856;-35.404;149.120;2023-03-01T03:35:34;27.80;34.70
46123;DHT22;31856;-35.404;149.120;2023-03-01T03:38:05;27.90;34.50
46123;DHT22;31856;-35.404;149.120;2023-03-01T03:40:35;27.80;34.80
46123;DHT22;31856;-35.404;149.120;2023-03-01T03:43:07;27.50;34.00
46123;DHT22;31856;-35.404;149.120;2023-03-01T03:45:37;27.20;34.20
46123;DHT22;31856;-35.404;149.120;2023-03-01T09:47:41;21.70;62.20
46123;DHT22;31856;-35.404;149.120;2023-03-01T09:50:16;21.70;62.70
46123;DHT22;31856;-35.404;149.120;2023-03-01T09:55:28;21.50;62.80
46123;DHT22;31856;-35.404;149.120;2023-03-01T10:00:54;21.50;61.70
46123;DHT22;31856;-35.404;149.120;2023-03-01T10:03:44;21.40;61.70
46123;DHT22;31856;-35.404;149.120;2023-03-01T10:06:21;21.30;62.20
46123;DHT22;31856;-35.404;149.120;2023-03-01T10:11:32;21.20;62.20
46123;DHT22;31856;-35.404;149.120;2023-03-01T10:16:50;21.10;62.60
46123;DHT22;31856;-35.404;149.120;2023-03-01T10:19:44;21.00;62.60
46123;DHT22;31856;-35.404;149.120;2023-03-01T10:24:44;20.90;63.00
46123;DHT22;31856;-35.404;149.120;2023-03-01T10:30:05;20.70;64.10
46123;DHT22;31856;-35.404;149.120;2023-03-01T10:32:35;20.70;64.10
46123;DHT22;31856;-35.404;149.120;2023-03-01T10:35:15;20.70;64.00
46123;DHT22;31856;-35.404;149.120;2023-03-01T10:40:33;20.60;64.40
46123;DHT22;31856;-35.404;149.120;2023-03-01T10:43:04;20.50;64.70
46123;DHT22;31856;-35.404;149.120;2023-03-01T10:45:36;20.50;64.40
46123;DHT22;31856;-35.404;149.120;2023-03-01T12:53:25;18.70;70.20
46123;DHT22;31856;-35.404;149.120;2023-03-01T12:55:58;18.70;70.10
46123;DHT22;31856;-35.404;149.120;2023-03-01T12:58:31;18.60;70.20
46123;DHT22;31856;-35.404;149.120;2023-03-01T13:04:14;18.60;70.40
46123;DHT22;31856;-35.404;149.120;2023-03-01T13:11:54;18.60;70.30
46123;DHT22;31856;-35.404;149.120;2023-03-01T13:16:54;18.50;70.50
46123;DHT22;31856;-35.404;149.120;2023-03-01T13:19:25;18.50;70.50
46123;DHT22;31856;-35.404;149.120;2023-03-01T13:21:57;18.50;70.90
46123;DHT22;31856;-35.404;149.120;2023-03-01T13:24:28;18.50;70.70
46123;DHT22;31856;-35.404;149.120;2023-03-01T13:27:41;18.50;71.10
46123;DHT22;31856;-35.404;149.120;2023-03-01T13:29:55;18.40;71.10
46123;DHT22;31856;-35.404;149.120;2023-03-01T13:32:25;18.40;70.90
